sensor_id;sensor_type;location;lat;lon;timestamp;P1;durP1;ratioP1;P2;durP2;ratioP2
52208;SDS011;38507;53.132;6.394;2023-06-19T00:00:30;6.80;;;5.75;;
52208;SDS011;38507;53.132;6.394;2023-06-19T00:02:55;8.32;;;5.60;;
52208;SDS011;38507;53.132;6.394;2023-06-19T00:05:21;6.47;;;5.30;;
52208;SDS011;38507;53.132;6.394;2023-06-19T00:07:48;12.10;;;6.13;;
52208;SDS011;38507;53.132;6.394;2023-06-19T00:10:14;8.43;;;5.93;;
52208;SDS011;38507;53.132;6.394;2023-06-19T00:12:40;7.88;;;5.65;;
52208;SDS011;38507;53.132;6.394;2023-06-19T00:15:05;8.00;;;6.00;;
52208;SDS011;38507;53.132;6.394;2023-06-19T00:17:34;9.25;;;5.95;;
52208;SDS011;38507;53.132;6.394;2023-06-19T00:20:03;6.38;;;5.05;;
52208;SDS011;38507;53.132;6.394;2023-06-19T00:22:30;8.70;;;5.78;;
52208;SDS011;38507;53.132;6.394;2023-06-19T00:24:56;9.65;;;6.13;;
52208;SDS011;38507;53.132;6.394;2023-06-19T00:27:22;6.47;;;5.03;;
52208;SDS011;38507;53.132;6.394;2023-06-19T00:29:49;9.65;;;5.75;;
52208;SDS011;38507;53.132;6.394;2023-06-19T00:32:17;10.43;;;5.65;;
52208;SDS011;38507;53.132;6.394;2023-06-19T00:34:43;8.38;;;4.95;;
52208;SDS011;38507;53.132;6.394;2023-06-19T00:37:09;6.95;;;5.68;;
52208;SDS011;38507;53.132;6.394;2023-06-19T00:39:35;10.40;;;5.95;;
52208;SDS011;38507;53.132;6.394;2023-06-19T00:42:00;6.82;;;5.50;;
52208;SDS011;38507;53.132;6.394;2023-06-19T00:44:26;7.30;;;5.63;;
52208;SDS011;38507;53.132;6.394;2023-06-19T00:46:56;8.02;;;5.72;;
52208;SDS011;38507;53.132;6.394;2023-06-19T00:49:24;8.73;;;5.30;;
52208;SDS011;38507;53.132;6.394;2023-06-19T00:51:51;10.52;;;5.38;;
52208;SDS011;38507;53.132;6.394;2023-06-19T00:54:17;10.80;;;5.70;;
52208;SDS011;38507;53.132;6.394;2023-06-19T00:56:43;6.95;;;5.13;;
52208;SDS011;38507;53.132;6.394;2023-06-19T00:59:12;7.45;;;4.85;;
52208;SDS011;38507;53.132;6.394;2023-06-19T01:01:43;10.55;;;5.68;;
52208;SDS011;38507;53.132;6.394;2023-06-19T01:04:10;9.77;;;5.45;;
52208;SDS011;38507;53.132;6.394;2023-06-19T01:06:43;9.35;;;5.72;;
52208;SDS011;38507;53.132;6.394;2023-06-19T01:09:25;7.78;;;5.60;;
52208;SDS011;38507;53.132;6.394;2023-06-19T01:11:58;9.40;;;5.70;;
52208;SDS011;38507;53.132;6.394;2023-06-19T01:14:35;12.00;;;5.97;;
52208;SDS011;38507;53.132;6.394;2023-06-19T01:17:06;9.50;;;5.70;;
52208;SDS011;38507;53.132;6.394;2023-06-19T01:19:32;8.68;;;5.45;;
52208;SDS011;38507;53.132;6.394;2023-06-19T01:22:01;13.45;;;5.55;;
52208;SDS011;38507;53.132;6.394;2023-06-19T01:24:27;8.85;;;5.93;;
52208;SDS011;38507;53.132;6.394;2023-06-19T01:26:52;9.32;;;5.22;;
52208;SDS011;38507;53.132;6.394;2023-06-19T01:29:18;7.85;;;5.13;;
52208;SDS011;38507;53.132;6.394;2023-06-19T01:31:50;8.43;;;5.07;;
52208;SDS011;38507;53.132;6.394;2023-06-19T01:34:34;9.93;;;5.60;;
52208;SDS011;38507;53.132;6.394;2023-06-19T01:37:02;9.52;;;5.60;;
52208;SDS011;38507;53.132;6.394;2023-06-19T01:39:30;8.95;;;5.80;;
52208;SDS011;38507;53.132;6.394;2023-06-19T01:41:57;7.90;;;5.97;;
52208;SDS011;38507;53.132;6.394;2023-06-19T01:44:24;7.80;;;5.97;;
52208;SDS011;38507;53.132;6.394;2023-06-19T01:46:50;8.73;;;6.22;;
52208;SDS011;38507;53.132;6.394;2023-06-19T01:49:16;12.18;;;5.88;;
52208;SDS011;38507;53.132;6.394;2023-06-19T01:51:43;7.80;;;5.93;;
52208;SDS011;38507;53.132;6.394;2023-06-19T01:54:09;11.40;;;6.28;;
52208;SDS011;38507;53.132;6.394;2023-06-19T01:56:34;10.80;;;5.53;;
52208;SDS011;38507;53.132;6.394;2023-06-19T01:59:01;12.20;;;5.93;;
52208;SDS011;38507;53.132;6.394;2023-06-19T02:01:26;9.27;;;6.07;;
52208;SDS011;38507;53.132;6.394;2023-06-19T02:03:52;7.70;;;6.18;;
52208;SDS011;38507;53.132;6.394;2023-06-19T02:06:18;10.07;;;5.70;;
52208;SDS011;38507;53.132;6.394;2023-06-19T02:08:43;9.00;;;5.32;;
52208;SDS011;38507;53.132;6.394;2023-06-19T02:11:09;8.57;;;6.18;;
52208;SDS011;38507;53.132;6.394;2023-06-19T02:13:35;7.55;;;5.70;;
52208;SDS011;38507;53.132;6.394;2023-06-19T02:16:00;9.60;;;5.60;;
52208;SDS011;38507;53.132;6.394;2023-06-19T02:18:26;9.30;;;5.80;;
52208;SDS011;38507;53.132;6.394;2023-06-19T02:20:52;9.63;;;6.35;;
52208;SDS011;38507;53.132;6.394;2023-06-19T02:23:17;8.27;;;5.75;;
52208;SDS011;38507;53.132;6.394;2023-06-19T02:25:43;12.25;;;5.47;;
52208;SDS011;38507;53.132;6.394;2023-06-19T02:28:08;7.15;;;5.70;;
52208;SDS011;38507;53.132;6.394;2023-06-19T02:30:34;9.07;;;6.07;;
52208;SDS011;38507;53.132;6.394;2023-06-19T02:33:00;8.98;;;5.90;;
52208;SDS011;38507;53.132;6.394;2023-06-19T02:35:26;8.98;;;5.40;;
52208;SDS011;38507;53.132;6.394;2023-06-19T02:37:51;8.35;;;6.05;;
52208;SDS011;38507;53.132;6.394;2023-06-19T02:40:17;8.77;;;5.85;;
52208;SDS011;38507;53.132;6.394;2023-06-19T02:42:43;6.85;;;5.43;;
52208;SDS011;38507;53.132;6.394;2023-06-19T02:45:09;10.63;;;5.60;;
52208;SDS011;38507;53.132;6.394;2023-06-19T02:47:35;9.50;;;6.00;;
52208;SDS011;38507;53.132;6.394;2023-06-19T02:50:01;9.70;;;5.93;;
52208;SDS011;38507;53.132;6.394;2023-06-19T02:52:29;12.02;;;6.10;;
52208;SDS011;38507;53.132;6.394;2023-06-19T02:54:54;8.52;;;6.15;;
52208;SDS011;38507;53.132;6.394;2023-06-19T02:57:20;12.13;;;6.38;;
52208;SDS011;38507;53.132;6.394;2023-06-19T02:59:46;8.68;;;5.85;;
52208;SDS011;38507;53.132;6.394;2023-06-19T03:02:12;7.07;;;5.28;;
52208;SDS011;38507;53.132;6.394;2023-06-19T03:04:38;10.10;;;6.13;;
52208;SDS011;38507;53.132;6.394;2023-06-19T03:07:05;9.25;;;6.50;;
52208;SDS011;38507;53.132;6.394;2023-06-19T03:09:31;7.90;;;6.50;;
52208;SDS011;38507;53.132;6.394;2023-06-19T03:11:56;10.85;;;6.35;;
52208;SDS011;38507;53.132;6.394;2023-06-19T03:14:22;8.55;;;6.40;;
52208;SDS011;38507;53.132;6.394;2023-06-19T03:16:48;10.15;;;5.57;;
52208;SDS011;38507;53.132;6.394;2023-06-19T03:19:13;9.40;;;6.22;;
52208;SDS011;38507;53.132;6.394;2023-06-19T03:21:39;10.88;;;6.65;;
52208;SDS011;38507;53.132;6.394;2023-06-19T03:24:04;7.22;;;5.95;;
52208;SDS011;38507;53.132;6.394;2023-06-19T03:26:30;9.80;;;6.32;;
52208;SDS011;38507;53.132;6.394;2023-06-19T03:28:56;7.68;;;5.57;;
52208;SDS011;38507;53.132;6.394;2023-06-19T03:31:22;10.05;;;6.05;;
52208;SDS011;38507;53.132;6.394;2023-06-19T03:33:47;9.70;;;6.00;;
52208;SDS011;38507;53.132;6.394;2023-06-19T03:36:13;11.38;;;7.50;;
52208;SDS011;38507;53.132;6.394;2023-06-19T03:38:39;8.25;;;6.32;;
52208;SDS011;38507;53.132;6.394;2023-06-19T03:41:05;7.50;;;6.10;;
52208;SDS011;38507;53.132;6.394;2023-06-19T03:43:30;10.77;;;6.57;;
52208;SDS011;38507;53.132;6.394;2023-06-19T03:45:56;7.63;;;5.88;;
52208;SDS011;38507;53.132;6.394;2023-06-19T03:48:22;7.65;;;5.90;;
52208;SDS011;38507;53.132;6.394;2023-06-19T03:50:47;8.50;;;6.13;;
52208;SDS011;38507;53.132;6.394;2023-06-19T03:53:13;10.32;;;6.15;;
52208;SDS011;38507;53.132;6.394;2023-06-19T03:55:39;7.47;;;5.63;;
52208;SDS011;38507;53.132;6.394;2023-06-19T03:58:04;6.63;;;5.40;;
52208;SDS011;38507;53.132;6.394;2023-06-19T04:00:31;9.93;;;5.82;;
52208;SDS011;38507;53.132;6.394;2023-06-19T04:02:57;9.13;;;6.60;;
52208;SDS011;38507;53.132;6.394;2023-06-19T04:05:22;11.07;;;6.03;;
52208;SDS011;38507;53.132;6.394;2023-06-19T04:07:48;9.20;;;5.43;;
52208;SDS011;38507;53.132;6.394;2023-06-19T04:10:14;8.70;;;5.80;;
52208;SDS011;38507;53.132;6.394;2023-06-19T04:12:39;6.95;;;5.55;;
52208;SDS011;38507;53.132;6.394;2023-06-19T04:15:06;7.28;;;5.57;;
52208;SDS011;38507;53.132;6.394;2023-06-19T04:17:32;8.40;;;5.55;;
52208;SDS011;38507;53.132;6.394;2023-06-19T04:19:57;10.07;;;5.80;;
52208;SDS011;38507;53.132;6.394;2023-06-19T04:22:23;7.15;;;5.15;;
52208;SDS011;38507;53.132;6.394;2023-06-19T04:24:49;9.23;;;5.32;;
52208;SDS011;38507;53.132;6.394;2023-06-19T04:27:14;7.55;;;5.10;;
52208;SDS011;38507;53.132;6.394;2023-06-19T04:29:40;6.68;;;4.85;;
52208;SDS011;38507;53.132;6.394;2023-06-19T04:32:06;7.05;;;4.10;;
52208;SDS011;38507;53.132;6.394;2023-06-19T04:34:36;8.23;;;3.70;;
52208;SDS011;38507;53.132;6.394;2023-06-19T04:37:03;6.07;;;4.03;;
52208;SDS011;38507;53.132;6.394;2023-06-19T04:39:29;8.63;;;4.03;;
52208;SDS011;38507;53.132;6.394;2023-06-19T04:41:55;5.35;;;3.47;;
52208;SDS011;38507;53.132;6.394;2023-06-19T04:44:21;7.90;;;3.70;;
52208;SDS011;38507;53.132;6.394;2023-06-19T04:46:47;10.57;;;3.72;;
52208;SDS011;38507;53.132;6.394;2023-06-19T04:49:13;6.70;;;4.18;;
52208;SDS011;38507;53.132;6.394;2023-06-19T04:51:39;6.38;;;4.10;;
52208;SDS011;38507;53.132;6.394;2023-06-19T04:54:05;7.35;;;3.65;;
52208;SDS011;38507;53.132;6.394;2023-06-19T04:56:31;9.07;;;3.67;;
52208;SDS011;38507;53.132;6.394;2023-06-19T04:58:57;6.60;;;4.10;;
52208;SDS011;38507;53.132;6.394;2023-06-19T05:01:25;6.18;;;3.97;;
52208;SDS011;38507;53.132;6.394;2023-06-19T05:03:53;8.68;;;3.88;;
52208;SDS011;38507;53.132;6.394;2023-06-19T05:06:24;7.50;;;3.70;;
52208;SDS011;38507;53.132;6.394;2023-06-19T05:08:50;5.35;;;3.90;;
52208;SDS011;38507;53.132;6.394;2023-06-19T05:11:15;5.65;;;3.75;;
52208;SDS011;38507;53.132;6.394;2023-06-19T05:13:41;5.50;;;3.88;;
52208;SDS011;38507;53.132;6.394;2023-06-19T05:16:07;5.90;;;4.30;;
52208;SDS011;38507;53.132;6.394;2023-06-19T05:18:33;4.60;;;3.30;;
52208;SDS011;38507;53.132;6.394;2023-06-19T05:20:58;5.32;;;3.47;;
52208;SDS011;38507;53.132;6.394;2023-06-19T05:23:24;7.05;;;3.75;;
52208;SDS011;38507;53.132;6.394;2023-06-19T05:25:49;5.18;;;3.88;;
52208;SDS011;38507;53.132;6.394;2023-06-19T05:28:15;5.07;;;3.75;;
52208;SDS011;38507;53.132;6.394;2023-06-19T05:30:41;8.15;;;4.50;;
52208;SDS011;38507;53.132;6.394;2023-06-19T05:33:07;8.02;;;4.70;;
52208;SDS011;38507;53.132;6.394;2023-06-19T05:35:32;9.30;;;4.65;;
52208;SDS011;38507;53.132;6.394;2023-06-19T05:37:58;10.30;;;5.35;;
52208;SDS011;38507;53.132;6.394;2023-06-19T05:40:23;5.53;;;4.20;;
52208;SDS011;38507;53.132;6.394;2023-06-19T05:42:49;6.45;;;4.65;;
52208;SDS011;38507;53.132;6.394;2023-06-19T05:45:15;7.70;;;4.90;;
52208;SDS011;38507;53.132;6.394;2023-06-19T05:47:40;6.25;;;4.38;;
52208;SDS011;38507;53.132;6.394;2023-06-19T05:50:06;7.50;;;5.18;;
52208;SDS011;38507;53.132;6.394;2023-06-19T05:52:32;6.45;;;5.28;;
52208;SDS011;38507;53.132;6.394;2023-06-19T05:54:58;7.40;;;4.85;;
52208;SDS011;38507;53.132;6.394;2023-06-19T05:57:24;7.88;;;5.10;;
52208;SDS011;38507;53.132;6.394;2023-06-19T05:59:50;6.68;;;4.85;;
52208;SDS011;38507;53.132;6.394;2023-06-19T06:02:16;6.72;;;4.93;;
52208;SDS011;38507;53.132;6.394;2023-06-19T06:04:43;7.85;;;5.00;;
52208;SDS011;38507;53.132;6.394;2023-06-19T06:07:09;7.78;;;6.40;;
52208;SDS011;38507;53.132;6.394;2023-06-19T06:09:35;8.95;;;7.00;;
52208;SDS011;38507;53.132;6.394;2023-06-19T06:12:01;11.85;;;7.30;;
52208;SDS011;38507;53.132;6.394;2023-06-19T06:14:26;12.13;;;7.63;;
52208;SDS011;38507;53.132;6.394;2023-06-19T06:16:52;11.30;;;7.57;;
52208;SDS011;38507;53.132;6.394;2023-06-19T06:19:19;13.55;;;7.80;;
52208;SDS011;38507;53.132;6.394;2023-06-19T06:21:47;10.90;;;7.85;;
52208;SDS011;38507;53.132;6.394;2023-06-19T06:24:13;8.80;;;7.05;;
52208;SDS011;38507;53.132;6.394;2023-06-19T06:26:39;9.63;;;7.32;;
52208;SDS011;38507;53.132;6.394;2023-06-19T06:29:04;9.57;;;7.38;;
52208;SDS011;38507;53.132;6.394;2023-06-19T06:31:30;10.57;;;6.75;;
52208;SDS011;38507;53.132;6.394;2023-06-19T06:33:56;7.57;;;5.90;;
52208;SDS011;38507;53.132;6.394;2023-06-19T06:36:21;10.73;;;6.80;;
52208;SDS011;38507;53.132;6.394;2023-06-19T06:38:47;10.63;;;6.40;;
52208;SDS011;38507;53.132;6.394;2023-06-19T06:41:13;6.60;;;5.78;;
52208;SDS011;38507;53.132;6.394;2023-06-19T06:43:40;7.57;;;6.15;;
52208;SDS011;38507;53.132;6.394;2023-06-19T06:46:07;8.73;;;5.90;;
52208;SDS011;38507;53.132;6.394;2023-06-19T06:48:33;10.45;;;6.97;;
52208;SDS011;38507;53.132;6.394;2023-06-19T06:50:59;10.30;;;7.38;;
52208;SDS011;38507;53.132;6.394;2023-06-19T06:53:26;8.15;;;6.90;;
52208;SDS011;38507;53.132;6.394;2023-06-19T06:55:57;8.23;;;6.30;;
52208;SDS011;38507;53.132;6.394;2023-06-19T06:58:24;7.43;;;6.43;;
52208;SDS011;38507;53.132;6.394;2023-06-19T07:00:50;9.82;;;7.90;;
52208;SDS011;38507;53.132;6.394;2023-06-19T07:03:16;20.00;;;8.52;;
52208;SDS011;38507;53.132;6.394;2023-06-19T07:05:43;9.77;;;7.95;;
52208;SDS011;38507;53.132;6.394;2023-06-19T07:08:09;13.23;;;8.93;;
52208;SDS011;38507;53.132;6.394;2023-06-19T07:10:34;14.68;;;10.38;;
52208;SDS011;38507;53.132;6.394;2023-06-19T07:13:00;12.52;;;10.60;;
52208;SDS011;38507;53.132;6.394;2023-06-19T07:15:26;15.38;;;12.20;;
52208;SDS011;38507;53.132;6.394;2023-06-19T07:17:51;16.85;;;12.43;;
52208;SDS011;38507;53.132;6.394;2023-06-19T07:20:17;19.73;;;13.68;;
52208;SDS011;38507;53.132;6.394;2023-06-19T07:22:43;14.65;;;12.70;;
52208;SDS011;38507;53.132;6.394;2023-06-19T07:25:10;22.30;;;14.82;;
52208;SDS011;38507;53.132;6.394;2023-06-19T07:27:36;20.33;;;14.90;;
52208;SDS011;38507;53.132;6.394;2023-06-19T07:30:02;21.40;;;15.52;;
52208;SDS011;38507;53.132;6.394;2023-06-19T07:32:28;18.65;;;14.90;;
52208;SDS011;38507;53.132;6.394;2023-06-19T07:34:54;21.73;;;14.07;;
52208;SDS011;38507;53.132;6.394;2023-06-19T07:37:19;19.23;;;14.63;;
52208;SDS011;38507;53.132;6.394;2023-06-19T07:39:49;21.10;;;14.63;;
52208;SDS011;38507;53.132;6.394;2023-06-19T07:42:16;21.17;;;14.07;;
52208;SDS011;38507;53.132;6.394;2023-06-19T07:44:43;17.25;;;13.00;;
52208;SDS011;38507;53.132;6.394;2023-06-19T07:47:09;18.05;;;12.52;;
52208;SDS011;38507;53.132;6.394;2023-06-19T07:49:35;15.68;;;11.98;;
52208;SDS011;38507;53.132;6.394;2023-06-19T07:52:01;18.83;;;12.43;;
52208;SDS011;38507;53.132;6.394;2023-06-19T07:54:27;16.23;;;11.93;;
52208;SDS011;38507;53.132;6.394;2023-06-19T07:56:53;16.13;;;11.20;;
52208;SDS011;38507;53.132;6.394;2023-06-19T07:59:19;16.20;;;11.30;;
52208;SDS011;38507;53.132;6.394;2023-06-19T08:01:45;14.82;;;10.50;;
52208;SDS011;38507;53.132;6.394;2023-06-19T08:04:11;15.93;;;9.50;;
52208;SDS011;38507;53.132;6.394;2023-06-19T08:06:36;16.25;;;9.50;;
52208;SDS011;38507;53.132;6.394;2023-06-19T08:09:02;11.60;;;8.63;;
52208;SDS011;38507;53.132;6.394;2023-06-19T08:11:28;13.70;;;8.50;;
52208;SDS011;38507;53.132;6.394;2023-06-19T08:13:54;13.35;;;9.18;;
52208;SDS011;38507;53.132;6.394;2023-06-19T08:16:20;11.48;;;8.25;;
52208;SDS011;38507;53.132;6.394;2023-06-19T08:18:46;12.00;;;9.00;;
52208;SDS011;38507;53.132;6.394;2023-06-19T08:21:12;16.25;;;9.02;;
52208;SDS011;38507;53.132;6.394;2023-06-19T08:23:38;14.20;;;8.80;;
52208;SDS011;38507;53.132;6.394;2023-06-19T08:26:04;14.93;;;8.82;;
52208;SDS011;38507;53.132;6.394;2023-06-19T08:28:33;17.17;;;8.27;;
52208;SDS011;38507;53.132;6.394;2023-06-19T08:30:59;11.75;;;8.55;;
52208;SDS011;38507;53.132;6.394;2023-06-19T08:33:25;13.18;;;8.45;;
52208;SDS011;38507;53.132;6.394;2023-06-19T08:35:51;12.50;;;8.23;;
52208;SDS011;38507;53.132;6.394;2023-06-19T08:38:18;12.52;;;8.00;;
52208;SDS011;38507;53.132;6.394;2023-06-19T08:40:44;13.05;;;8.27;;
52208;SDS011;38507;53.132;6.394;2023-06-19T08:43:10;12.45;;;7.28;;
52208;SDS011;38507;53.132;6.394;2023-06-19T08:45:36;11.10;;;7.10;;
52208;SDS011;38507;53.132;6.394;2023-06-19T08:48:02;12.68;;;6.90;;
52208;SDS011;38507;53.132;6.394;2023-06-19T08:50:32;9.63;;;6.70;;
52208;SDS011;38507;53.132;6.394;2023-06-19T08:52:58;11.15;;;6.47;;
52208;SDS011;38507;53.132;6.394;2023-06-19T08:55:24;9.13;;;6.22;;
52208;SDS011;38507;53.132;6.394;2023-06-19T08:57:50;11.02;;;6.03;;
52208;SDS011;38507;53.132;6.394;2023-06-19T09:00:24;10.82;;;6.00;;
52208;SDS011;38507;53.132;6.394;2023-06-19T09:02:51;10.52;;;5.55;;
52208;SDS011;38507;53.132;6.394;2023-06-19T09:05:18;8.52;;;5.45;;
52208;SDS011;38507;53.132;6.394;2023-06-19T09:07:44;6.35;;;4.60;;
52208;SDS011;38507;53.132;6.394;2023-06-19T09:10:23;7.78;;;5.20;;
52208;SDS011;38507;53.132;6.394;2023-06-19T09:13:02;6.40;;;4.65;;
52208;SDS011;38507;53.132;6.394;2023-06-19T09:15:29;10.75;;;5.55;;
52208;SDS011;38507;53.132;6.394;2023-06-19T09:18:15;7.68;;;5.00;;
52208;SDS011;38507;53.132;6.394;2023-06-19T09:20:41;9.20;;;4.97;;
52208;SDS011;38507;53.132;6.394;2023-06-19T09:23:09;9.88;;;4.72;;
52208;SDS011;38507;53.132;6.394;2023-06-19T09:25:46;7.65;;;5.30;;
52208;SDS011;38507;53.132;6.394;2023-06-19T09:28:19;6.50;;;4.50;;
52208;SDS011;38507;53.132;6.394;2023-06-19T09:30:56;6.88;;;5.13;;
52208;SDS011;38507;53.132;6.394;2023-06-19T09:33:27;8.18;;;6.13;;
52208;SDS011;38507;53.132;6.394;2023-06-19T09:35:55;8.63;;;6.38;;
52208;SDS011;38507;53.132;6.394;2023-06-19T09:38:21;15.18;;;6.68;;
52208;SDS011;38507;53.132;6.394;2023-06-19T09:40:51;15.95;;;7.47;;
52208;SDS011;38507;53.132;6.394;2023-06-19T09:43:26;10.70;;;7.18;;
52208;SDS011;38507;53.132;6.394;2023-06-19T09:45:58;11.85;;;7.35;;
52208;SDS011;38507;53.132;6.394;2023-06-19T09:48:28;8.80;;;7.43;;
52208;SDS011;38507;53.132;6.394;2023-06-19T09:50:59;12.52;;;7.93;;
52208;SDS011;38507;53.132;6.394;2023-06-19T09:53:35;12.50;;;8.63;;
52208;SDS011;38507;53.132;6.394;2023-06-19T09:56:01;15.70;;;8.60;;
52208;SDS011;38507;53.132;6.394;2023-06-19T09:58:27;9.60;;;8.00;;
52208;SDS011;38507;53.132;6.394;2023-06-19T10:00:54;14.07;;;8.25;;
52208;SDS011;38507;53.132;6.394;2023-06-19T10:03:20;15.68;;;9.18;;
52208;SDS011;38507;53.132;6.394;2023-06-19T10:05:58;12.93;;;9.55;;
52208;SDS011;38507;53.132;6.394;2023-06-19T10:08:29;11.10;;;8.98;;
52208;SDS011;38507;53.132;6.394;2023-06-19T10:11:04;11.88;;;9.45;;
52208;SDS011;38507;53.132;6.394;2023-06-19T10:13:34;9.77;;;8.43;;
52208;SDS011;38507;53.132;6.394;2023-06-19T10:16:03;14.88;;;8.90;;
52208;SDS011;38507;53.132;6.394;2023-06-19T10:18:31;13.70;;;9.48;;
52208;SDS011;38507;53.132;6.394;2023-06-19T10:20:57;14.23;;;10.00;;
52208;SDS011;38507;53.132;6.394;2023-06-19T10:23:24;16.70;;;10.32;;
52208;SDS011;38507;53.132;6.394;2023-06-19T10:28:22;12.25;;;9.85;;
52208;SDS011;38507;53.132;6.394;2023-06-19T10:31:04;13.48;;;10.35;;
52208;SDS011;38507;53.132;6.394;2023-06-19T10:33:34;10.98;;;9.57;;
52208;SDS011;38507;53.132;6.394;2023-06-19T10:36:19;10.55;;;8.90;;
52208;SDS011;38507;53.132;6.394;2023-06-19T10:38:48;14.63;;;8.50;;
52208;SDS011;38507;53.132;6.394;2023-06-19T10:41:24;12.73;;;8.55;;
52208;SDS011;38507;53.132;6.394;2023-06-19T10:46:23;14.50;;;10.27;;
52208;SDS011;38507;53.132;6.394;2023-06-19T10:48:52;16.65;;;10.07;;
52208;SDS011;38507;53.132;6.394;2023-06-19T10:51:25;16.45;;;10.23;;
52208;SDS011;38507;53.132;6.394;2023-06-19T10:53:53;13.82;;;10.40;;
52208;SDS011;38507;53.132;6.394;2023-06-19T10:56:20;15.68;;;11.63;;
52208;SDS011;38507;53.132;6.394;2023-06-19T10:58:47;13.73;;;10.20;;
52208;SDS011;38507;53.132;6.394;2023-06-19T11:01:12;17.48;;;9.70;;
52208;SDS011;38507;53.132;6.394;2023-06-19T11:03:38;12.10;;;9.48;;
52208;SDS011;38507;53.132;6.394;2023-06-19T11:06:04;14.73;;;9.50;;
52208;SDS011;38507;53.132;6.394;2023-06-19T11:08:29;16.48;;;10.32;;
52208;SDS011;38507;53.132;6.394;2023-06-19T11:10:55;11.32;;;9.35;;
52208;SDS011;38507;53.132;6.394;2023-06-19T11:13:21;15.70;;;9.70;;
52208;SDS011;38507;53.132;6.394;2023-06-19T11:15:47;16.95;;;10.30;;
52208;SDS011;38507;53.132;6.394;2023-06-19T11:18:17;12.73;;;10.65;;
52208;SDS011;38507;53.132;6.394;2023-06-19T11:20:47;16.60;;;10.10;;
52208;SDS011;38507;53.132;6.394;2023-06-19T11:23:16;15.15;;;11.05;;
52208;SDS011;38507;53.132;6.394;2023-06-19T11:26:05;15.43;;;11.07;;
52208;SDS011;38507;53.132;6.394;2023-06-19T11:28:31;16.65;;;11.23;;
52208;SDS011;38507;53.132;6.394;2023-06-19T11:31:01;14.98;;;10.70;;
52208;SDS011;38507;53.132;6.394;2023-06-19T11:33:28;15.15;;;10.60;;
52208;SDS011;38507;53.132;6.394;2023-06-19T11:35:54;14.65;;;10.75;;
52208;SDS011;38507;53.132;6.394;2023-06-19T11:38:24;14.65;;;10.23;;
52208;SDS011;38507;53.132;6.394;2023-06-19T11:40:51;14.38;;;9.80;;
52208;SDS011;38507;53.132;6.394;2023-06-19T11:43:24;13.40;;;10.00;;
52208;SDS011;38507;53.132;6.394;2023-06-19T11:46:03;17.15;;;10.88;;
52208;SDS011;38507;53.132;6.394;2023-06-19T11:48:30;16.33;;;10.38;;
52208;SDS011;38507;53.132;6.394;2023-06-19T11:50:55;12.75;;;9.85;;
52208;SDS011;38507;53.132;6.394;2023-06-19T11:53:22;13.07;;;9.07;;
52208;SDS011;38507;53.132;6.394;2023-06-19T11:55:49;17.95;;;10.73;;
52208;SDS011;38507;53.132;6.394;2023-06-19T11:58:16;14.57;;;10.85;;
52208;SDS011;38507;53.132;6.394;2023-06-19T12:00:43;14.50;;;10.07;;
52208;SDS011;38507;53.132;6.394;2023-06-19T12:03:09;14.10;;;10.73;;
52208;SDS011;38507;53.132;6.394;2023-06-19T12:05:35;15.80;;;10.60;;
52208;SDS011;38507;53.132;6.394;2023-06-19T12:08:01;18.98;;;10.10;;
52208;SDS011;38507;53.132;6.394;2023-06-19T12:10:29;13.75;;;9.90;;
52208;SDS011;38507;53.132;6.394;2023-06-19T12:12:55;15.65;;;10.50;;
52208;SDS011;38507;53.132;6.394;2023-06-19T12:15:21;14.25;;;9.80;;
52208;SDS011;38507;53.132;6.394;2023-06-19T12:17:46;19.02;;;9.73;;
52208;SDS011;38507;53.132;6.394;2023-06-19T12:20:13;11.48;;;9.55;;
52208;SDS011;38507;53.132;6.394;2023-06-19T12:22:39;15.60;;;11.15;;
52208;SDS011;38507;53.132;6.394;2023-06-19T12:25:05;19.70;;;10.10;;
52208;SDS011;38507;53.132;6.394;2023-06-19T12:27:31;17.98;;;10.63;;
52208;SDS011;38507;53.132;6.394;2023-06-19T12:29:57;13.00;;;10.20;;
52208;SDS011;38507;53.132;6.394;2023-06-19T12:32:23;15.73;;;10.25;;
52208;SDS011;38507;53.132;6.394;2023-06-19T12:34:49;13.85;;;9.02;;
52208;SDS011;38507;53.132;6.394;2023-06-19T12:37:18;12.98;;;9.30;;
52208;SDS011;38507;53.132;6.394;2023-06-19T12:39:45;13.45;;;9.02;;
52208;SDS011;38507;53.132;6.394;2023-06-19T12:42:14;11.30;;;8.82;;
52208;SDS011;38507;53.132;6.394;2023-06-19T12:44:40;11.23;;;8.55;;
52208;SDS011;38507;53.132;6.394;2023-06-19T12:47:07;12.18;;;8.38;;
52208;SDS011;38507;53.132;6.394;2023-06-19T12:49:33;15.65;;;8.15;;
52208;SDS011;38507;53.132;6.394;2023-06-19T12:51:59;10.98;;;8.10;;
52208;SDS011;38507;53.132;6.394;2023-06-19T12:54:25;12.68;;;7.68;;
52208;SDS011;38507;53.132;6.394;2023-06-19T12:56:51;10.82;;;7.93;;
52208;SDS011;38507;53.132;6.394;2023-06-19T12:59:16;13.93;;;8.73;;
52208;SDS011;38507;53.132;6.394;2023-06-19T13:01:42;11.50;;;7.65;;
52208;SDS011;38507;53.132;6.394;2023-06-19T13:04:08;9.50;;;6.82;;
52208;SDS011;38507;53.132;6.394;2023-06-19T13:06:35;10.35;;;7.28;;
52208;SDS011;38507;53.132;6.394;2023-06-19T13:09:01;8.80;;;5.72;;
52208;SDS011;38507;53.132;6.394;2023-06-19T13:11:27;9.73;;;6.15;;
52208;SDS011;38507;53.132;6.394;2023-06-19T13:13:53;10.05;;;7.20;;
52208;SDS011;38507;53.132;6.394;2023-06-19T13:16:19;11.02;;;7.28;;
52208;SDS011;38507;53.132;6.394;2023-06-19T13:18:44;8.73;;;5.40;;
52208;SDS011;38507;53.132;6.394;2023-06-19T13:21:11;8.07;;;5.60;;
52208;SDS011;38507;53.132;6.394;2023-06-19T13:23:36;10.30;;;6.10;;
52208;SDS011;38507;53.132;6.394;2023-06-19T13:26:02;11.07;;;6.07;;
52208;SDS011;38507;53.132;6.394;2023-06-19T13:28:30;9.07;;;6.47;;
52208;SDS011;38507;53.132;6.394;2023-06-19T13:30:55;8.38;;;5.88;;
52208;SDS011;38507;53.132;6.394;2023-06-19T13:33:21;8.95;;;6.50;;
52208;SDS011;38507;53.132;6.394;2023-06-19T13:35:47;9.77;;;7.15;;
52208;SDS011;38507;53.132;6.394;2023-06-19T13:38:12;10.93;;;6.90;;
52208;SDS011;38507;53.132;6.394;2023-06-19T13:40:38;11.55;;;6.60;;
52208;SDS011;38507;53.132;6.394;2023-06-19T13:43:03;15.10;;;7.75;;
52208;SDS011;38507;53.132;6.394;2023-06-19T13:45:31;10.25;;;7.03;;
52208;SDS011;38507;53.132;6.394;2023-06-19T13:47:57;9.55;;;7.18;;
52208;SDS011;38507;53.132;6.394;2023-06-19T13:50:23;12.15;;;6.72;;
52208;SDS011;38507;53.132;6.394;2023-06-19T13:52:49;11.45;;;6.50;;
52208;SDS011;38507;53.132;6.394;2023-06-19T13:55:15;9.43;;;6.38;;
52208;SDS011;38507;53.132;6.394;2023-06-19T13:57:41;8.65;;;5.68;;
52208;SDS011;38507;53.132;6.394;2023-06-19T14:00:08;10.73;;;5.75;;
52208;SDS011;38507;53.132;6.394;2023-06-19T14:02:36;10.23;;;6.10;;
52208;SDS011;38507;53.132;6.394;2023-06-19T14:05:03;10.88;;;6.60;;
52208;SDS011;38507;53.132;6.394;2023-06-19T14:07:31;8.65;;;6.13;;
52208;SDS011;38507;53.132;6.394;2023-06-19T14:09:57;10.77;;;7.32;;
52208;SDS011;38507;53.132;6.394;2023-06-19T14:12:22;10.38;;;6.53;;
52208;SDS011;38507;53.132;6.394;2023-06-19T14:14:48;10.55;;;6.47;;
52208;SDS011;38507;53.132;6.394;2023-06-19T14:17:14;9.30;;;6.43;;
52208;SDS011;38507;53.132;6.394;2023-06-19T14:19:39;9.25;;;6.22;;
52208;SDS011;38507;53.132;6.394;2023-06-19T14:22:05;11.30;;;6.55;;
52208;SDS011;38507;53.132;6.394;2023-06-19T14:24:31;9.95;;;6.57;;
52208;SDS011;38507;53.132;6.394;2023-06-19T14:26:56;11.13;;;6.63;;
52208;SDS011;38507;53.132;6.394;2023-06-19T14:29:22;9.57;;;7.28;;
52208;SDS011;38507;53.132;6.394;2023-06-19T14:31:50;9.23;;;6.53;;
52208;SDS011;38507;53.132;6.394;2023-06-19T14:34:16;9.73;;;5.85;;
52208;SDS011;38507;53.132;6.394;2023-06-19T14:36:43;8.73;;;6.22;;
52208;SDS011;38507;53.132;6.394;2023-06-19T14:39:09;8.00;;;5.60;;
52208;SDS011;38507;53.132;6.394;2023-06-19T14:41:36;7.45;;;4.70;;